COOK1: Arkansas River Nr Coolidge, KS

                                SHEF ID:       COOK1     ARKANSAS R NR COOLIDGE, KS
STATION TYPE:
Regulating: Stage = 8.00, Flow = 2041

PRECIP STAGE STAGE(2) RIV-FLOW WTR-TEMP CONDUCT BAT-LOAD
in ft ft cfs F umho/cm volt
Ccp-Rev Ccp-Rev Ccp-Rev Ccp-Rev Ccp-Rev Ccp-Rev Ccp-Rev
(America/Chicago)
03/07 00:00 0.00 2.48 ---- 68 51.08 7000 12.37
03/07 01:00 0.00 2.48 ---- 68 49.86 7006 12.34
03/07 02:00 0.00 2.48 ---- 68 48.58 7011 12.33
03/07 03:00 0.00 2.48 ---- 68 47.16 7016 12.30
03/07 04:00 0.00 2.48 ---- 68 46.18 7024 12.27
03/07 05:00 0.00 2.48 ---- 68 45.34 7029 12.23
03/07 06:00 0.00 2.48 ---- 68 44.49 7036 12.19
03/07 07:00 0.00 2.48 ---- 68 43.75 7043 12.14
03/07 08:00 0.00 2.48 ---- 68 43.11 7045 12.13
03/07 09:00 0.00 2.48 ---- 68 43.29 7047 13.75
03/07 10:00 0.00 2.48 ---- 68 14.00 0 13.55
03/07 11:00 0.00 2.49 ---- 69 14.00 0 14.18
03/07 12:00 0.00 2.49 ---- 69 49.23 7011 14.38
03/07 13:00 0.00 2.49 ---- 69 51.78 7006 14.46
03/07 14:00 0.00 2.49 ---- 69 54.19 7009 14.45
03/07 15:00 0.00 2.49 ---- 69 56.10 7007 14.32
03/07 16:00 0.00 2.48 ---- 68 57.25 7007 14.17
03/07 17:00 0.00 2.49 ---- 69 57.52 7009 14.01
03/07 18:00 0.00 2.48 ---- 68 56.91 7015 13.82
03/07 19:00 0.00 2.49 ---- 69 55.92 7018 13.30
03/07 20:00 0.00 2.48 ---- 68 54.77 7020 12.59
03/07 21:00 0.00 2.47 ---- 67 53.62 7022 12.57
03/07 22:00 0.00 2.47 ---- 67 52.41 7018 12.49
03/07 23:00 0.00 2.47 ---- 67 51.22 7022 12.43
Data processed at Sun 08Mar2026 05:30 GMT

NOTICE: If you are parsing this page

Please convert to using our Data API. Starting early 2026 we will be migrating to: https://water.usace.army.mil with modern pages rendered in JavaScript. When this migration completes you will no longer be able to scrape this page! CWMSDataAPI (CDA)

Timeseries IDs (TSIDs)

TSIDs used from left to right in the data table
COOL.Precip-Inc.Total.1Hour.1Hour.Ccp-Rev
COOL.Stage.Inst.1Hour.0.Ccp-Rev
COOL.Stage-Alt.Inst.1Hour.0.Ccp-Rev
COOL.Flow.Inst.1Hour.0.Ccp-Rev
COOL.Temp-Water.Inst.1Hour.0.Ccp-Rev
COOL.Cond.Inst.1Hour.0.Ccp-Rev
COOL.Volt-Battery Load.Inst.1Hour.0.Ccp-Rev

                            

All information presented herein is the property of the government of the United States of America and may be revised or deleted at any time without prior notice. Dissemination of this information without the expressed written consent of the Public Affairs Office, Tulsa District U.S. Army Corps of Engineers is strictly prohibited. These data are gathered electronically and, as presented, have NOT undergone any form of quality control. These data are NOT guaranteed to be valid or correct.